Portada
METAR-TAF:

METAR-TAF

Aeropuertos :

La Gomera, España

Aeropuerto de La Gomera

latitud: 28-01-47N, longitud: 017-12-53W, altitud: 218 m

Observación

El informe se hizo hace 20 minutos, a las 06:00 UTC
Viento 3 kt del noroeste, variando entre oeste y este-noreste
Temperatura 16°C
Humedad 63%
Presión 1026 hPa
Visibilidad 10 km o más

METAR: GCGM 190600Z AUTO 32003KT 280V070 9999 BKN034/// 16/09 Q1026 RMK R09/VRB05KT ARP/36005KT 310V070

Hora: 06:20 (06:20 UTC)

Pronóstico

El informe se hizo hace 4 horas y 20 minutos, a las 02:00 UTC
Pronóstico válido del 19 a las 03 UTC al 20 a las 03 UTC
Viento 5 kt del norte-noreste
Visibilidad 10 km o más
Nubes dispersas a una altura de 3500 ft

TAF: GCGM 190200Z 1903/2003 02005KT 9999 SCT035 TX21/1914Z TN15/1906Z

Observaciones y pronósticos meteorológicos de más de 4000 aeropuertos (mensajes METAR y TAF).

Los puntos amarillos y rojos representan las estaciones disponibles.

Ponga el ratón en el punto deseado para ver el nombre de la estación.

Haga clic para ver las observaciones y los pronósticos meteorológicos.

Para cambiar el mapa : haga clic en los botones verdes con una cruz de color negro para hacer un zoom, en el botón verde con un guión para alejar o en las flechas verdes para mapas adyacentes.


METAR-TAF: